Time;durP1;ratioP1;P1;durP2;ratioP2;P2;SDS_P1;SDS_P2;PMS_P1;PMS_P2;Temp;Humidity;BMP_temperature;BMP_pressure;BME280_temperature;BME280_humidity;BME280_pressure;Samples;Min_cycle;Max_cycle;Signal;HPM_P1;HPM_P2
2022/07/24 00:02:19;;;;;;;0.40;0.40;;;;;;;;;;1875386;76;26188;-88
2022/07/24 00:04:47;;;;;;;0.37;0.37;;;;;;;;;;1871049;76;26186;-87
2022/07/24 00:07:14;;;;;;;0.33;0.33;;;;;;;;;;1880412;76;26188;-87
2022/07/24 00:09:41;;;;;;;0.33;0.33;;;;;;;;;;1895830;75;26192;-87
2022/07/24 00:12:09;;;;;;;0.47;0.47;;;;;;;;;;1894518;75;26641;-87
2022/07/24 00:14:36;;;;;;;0.40;0.40;;;;;;;;;;1873772;75;26180;-88
2022/07/24 00:17:03;;;;;;;0.40;0.40;;;;;;;;;;1880136;75;26211;-88
2022/07/24 00:19:31;;;;;;;1.02;0.40;;;;;;;;;;1878346;75;26190;-88
2022/07/24 00:21:59;;;;;;;0.40;0.40;;;;;;;;;;1874593;75;26226;-87
2022/07/24 00:24:26;;;;;;;0.25;0.25;;;;;;;;;;1880976;76;26270;-87
2022/07/24 00:26:54;;;;;;;0.30;0.30;;;;;;;;;;1874279;75;26227;-86
2022/07/24 00:29:21;;;;;;;0.40;0.40;;;;;;;;;;1898526;75;26258;-87
2022/07/24 00:31:49;;;;;;;0.47;0.47;;;;;;;;;;1893110;75;26281;-87
2022/07/24 00:34:16;;;;;;;0.50;0.50;;;;;;;;;;1873133;75;26634;-86
2022/07/24 00:36:43;;;;;;;0.30;0.30;;;;;;;;;;1883485;75;27065;-86
2022/07/24 00:39:11;;;;;;;0.40;0.40;;;;;;;;;;1881532;75;26742;-87
2022/07/24 00:41:39;;;;;;;0.30;0.30;;;;;;;;;;1873711;75;26257;-86
2022/07/24 00:44:13;;;;;;;0.40;0.40;;;;;;;;;;1876019;75;26611;-88
2022/07/24 00:46:41;;;;;;;0.30;0.30;;;;;;;;;;1884622;75;26189;-87
2022/07/24 00:49:10;;;;;;;0.30;0.30;;;;;;;;;;1893790;75;26289;-86
2022/07/24 00:51:37;;;;;;;0.33;0.33;;;;;;;;;;1887252;75;26699;-87
2022/07/24 00:54:06;;;;;;;0.30;0.30;;;;;;;;;;1883989;75;26230;-87
2022/07/24 00:56:33;;;;;;;0.35;0.35;;;;;;;;;;1873481;75;26194;-87
2022/07/24 00:59:01;;;;;;;0.40;0.40;;;;;;;;;;1892064;75;26740;-87
2022/07/24 01:01:29;;;;;;;0.40;0.40;;;;;;;;;;1886768;76;26230;-88
2022/07/24 01:03:56;;;;;;;0.35;0.35;;;;;;;;;;1874927;75;26729;-87
2022/07/24 01:06:24;;;;;;;0.40;0.40;;;;;;;;;;1873444;75;26189;-87
2022/07/24 01:08:52;;;;;;;0.40;0.40;;;;;;;;;;1865728;75;26799;-87
2022/07/24 01:11:19;;;;;;;0.30;0.30;;;;;;;;;;1879378;75;26247;-88
2022/07/24 01:13:50;;;;;;;0.30;0.30;;;;;;;;;;1886790;75;26757;-88
2022/07/24 01:16:18;;;;;;;0.28;0.28;;;;;;;;;;1892733;75;26603;-89
2022/07/24 01:18:46;;;;;;;0.40;0.40;;;;;;;;;;1884314;75;26663;-87
2022/07/24 01:21:13;;;;;;;0.40;0.40;;;;;;;;;;1877942;75;26268;-88
2022/07/24 01:23:40;;;;;;;0.40;0.40;;;;;;;;;;1853130;75;26210;-87
2022/07/24 01:26:08;;;;;;;0.45;0.45;;;;;;;;;;1887733;75;26195;-88
2022/07/24 01:28:35;;;;;;;0.30;0.30;;;;;;;;;;1894240;75;26797;-88
2022/07/24 01:31:03;;;;;;;0.35;0.35;;;;;;;;;;1886096;75;26215;-87
2022/07/24 01:33:30;;;;;;;0.50;0.50;;;;;;;;;;1896304;75;26270;-87
2022/07/24 01:35:57;;;;;;;0.40;0.40;;;;;;;;;;1894032;75;26195;-86
2022/07/24 01:38:25;;;;;;;0.40;0.40;;;;;;;;;;1880600;75;26234;-87
2022/07/24 01:40:52;;;;;;;0.37;0.37;;;;;;;;;;1886683;75;26199;-88
2022/07/24 01:43:19;;;;;;;0.30;0.30;;;;;;;;;;1888421;75;26249;-89
2022/07/24 01:45:47;;;;;;;0.30;0.30;;;;;;;;;;1879460;75;26285;-88
2022/07/24 01:48:14;;;;;;;0.37;0.37;;;;;;;;;;1884133;75;26227;-88
2022/07/24 01:50:41;;;;;;;0.40;0.40;;;;;;;;;;1866863;75;26702;-86
2022/07/24 01:53:09;;;;;;;0.40;0.40;;;;;;;;;;1878116;75;26206;-88
2022/07/24 01:55:36;;;;;;;0.33;0.33;;;;;;;;;;1881830;75;26237;-88
2022/07/24 01:58:03;;;;;;;0.30;0.30;;;;;;;;;;1862178;75;26270;-88
2022/07/24 02:00:30;;;;;;;0.40;0.40;;;;;;;;;;1890869;75;26199;-88
2022/07/24 02:02:58;;;;;;;0.30;0.30;;;;;;;;;;1868808;76;26953;-88
2022/07/24 02:05:25;;;;;;;0.40;0.40;;;;;;;;;;1887940;75;26214;-88
2022/07/24 02:08:00;;;;;;;0.30;0.30;;;;;;;;;;1896518;75;26691;-88
2022/07/24 02:10:28;;;;;;;0.30;0.30;;;;;;;;;;1876799;75;26198;-89
2022/07/24 02:12:56;;;;;;;0.30;0.30;;;;;;;;;;1892413;75;26233;-88
2022/07/24 02:15:23;;;;;;;0.40;0.40;;;;;;;;;;1879666;75;26195;-87
2022/07/24 02:17:51;;;;;;;0.40;0.40;;;;;;;;;;1876541;76;26681;-88
2022/07/24 02:20:19;;;;;;;0.40;0.40;;;;;;;;;;1869391;75;26264;-89
2022/07/24 02:22:47;;;;;;;0.50;0.50;;;;;;;;;;1884585;75;26283;-87
2022/07/24 02:25:14;;;;;;;0.40;0.40;;;;;;;;;;1884354;75;26421;-88
2022/07/24 02:27:42;;;;;;;0.40;0.40;;;;;;;;;;1895818;76;26157;-88
2022/07/24 02:30:11;;;;;;;0.30;0.30;;;;;;;;;;1864346;75;26295;-87
2022/07/24 02:32:39;;;;;;;0.30;0.30;;;;;;;;;;1884123;75;26166;-88
2022/07/24 02:35:06;;;;;;;0.35;0.35;;;;;;;;;;1872307;75;26253;-88
2022/07/24 02:37:35;;;;;;;0.40;0.40;;;;;;;;;;1883209;75;26285;-88
2022/07/24 02:40:02;;;;;;;0.40;0.40;;;;;;;;;;1890379;76;26305;-88
2022/07/24 02:42:30;;;;;;;0.30;0.30;;;;;;;;;;1891378;75;26264;-87
2022/07/24 02:44:57;;;;;;;0.30;0.30;;;;;;;;;;1866002;76;26248;-88
2022/07/24 02:47:24;;;;;;;0.35;0.35;;;;;;;;;;1879182;75;25611;-87
2022/07/24 02:49:51;;;;;;;0.40;0.40;;;;;;;;;;1898643;75;26232;-87
2022/07/24 02:52:19;;;;;;;0.30;0.30;;;;;;;;;;1880849;75;26179;-89
2022/07/24 02:54:46;;;;;;;0.40;0.40;;;;;;;;;;1873425;75;26285;-88
2022/07/24 02:57:13;;;;;;;0.33;0.33;;;;;;;;;;1888713;76;26171;-88
2022/07/24 02:59:40;;;;;;;0.40;0.40;;;;;;;;;;1889727;74;26223;-87
2022/07/24 03:02:08;;;;;;;0.30;0.30;;;;;;;;;;1892499;75;26264;-85
2022/07/24 03:04:35;;;;;;;0.30;0.30;;;;;;;;;;1885261;74;26227;-85
2022/07/24 03:07:02;;;;;;;0.40;0.40;;;;;;;;;;1897655;73;26206;-86
2022/07/24 03:09:29;;;;;;;0.40;0.40;;;;;;;;;;1900163;73;26266;-85
2022/07/24 03:11:57;;;;;;;0.30;0.30;;;;;;;;;;1894167;74;26231;-86
2022/07/24 03:14:24;;;;;;;0.40;0.40;;;;;;;;;;1890130;75;26200;-86
2022/07/24 03:16:51;;;;;;;0.40;0.40;;;;;;;;;;1884684;75;25977;-87
2022/07/24 03:19:19;;;;;;;0.50;0.50;;;;;;;;;;1902930;73;26222;-85
2022/07/24 03:21:46;;;;;;;0.40;0.40;;;;;;;;;;1903243;74;26219;-87
2022/07/24 03:24:13;;;;;;;0.40;0.40;;;;;;;;;;1893459;73;26305;-88
2022/07/24 03:26:41;;;;;;;0.37;0.37;;;;;;;;;;1886760;75;26156;-88
2022/07/24 03:29:08;;;;;;;0.42;0.42;;;;;;;;;;1886610;75;26191;-88
2022/07/24 03:31:35;;;;;;;0.42;0.42;;;;;;;;;;1862997;75;26175;-87
2022/07/24 03:34:02;;;;;;;0.40;0.40;;;;;;;;;;1882620;75;26807;-87
2022/07/24 03:36:30;;;;;;;0.40;0.40;;;;;;;;;;1886019;75;26241;-87
2022/07/24 03:38:57;;;;;;;0.40;0.40;;;;;;;;;;1864737;76;26250;-88
2022/07/24 03:41:24;;;;;;;0.40;0.40;;;;;;;;;;1883316;75;26195;-87
2022/07/24 03:43:51;;;;;;;0.40;0.40;;;;;;;;;;1897061;75;26990;-87
2022/07/24 03:46:19;;;;;;;0.30;0.30;;;;;;;;;;1874245;75;26717;-88
2022/07/24 03:48:46;;;;;;;0.50;0.50;;;;;;;;;;1894069;75;26789;-87
2022/07/24 03:51:13;;;;;;;0.30;0.30;;;;;;;;;;1895916;75;26245;-87
2022/07/24 03:53:41;;;;;;;0.33;0.33;;;;;;;;;;1883621;75;26185;-86
2022/07/24 03:56:09;;;;;;;0.40;0.40;;;;;;;;;;1884626;75;26194;-86
2022/07/24 03:58:36;;;;;;;0.50;0.50;;;;;;;;;;1890282;75;26233;-87
2022/07/24 04:01:03;;;;;;;0.40;0.40;;;;;;;;;;1867384;76;26771;-88
2022/07/24 04:03:31;;;;;;;0.50;0.50;;;;;;;;;;1878008;75;26209;-87
2022/07/24 04:05:59;;;;;;;0.45;0.45;;;;;;;;;;1867339;75;26190;-88
2022/07/24 04:08:27;;;;;;;0.57;0.57;;;;;;;;;;1870628;75;27010;-88
2022/07/24 04:10:56;;;;;;;0.50;0.50;;;;;;;;;;1893385;76;26215;-88
2022/07/24 04:13:26;;;;;;;0.30;0.30;;;;;;;;;;1885994;75;26222;-87
2022/07/24 04:15:54;;;;;;;0.50;0.50;;;;;;;;;;1890198;75;26744;-87
2022/07/24 04:18:22;;;;;;;0.50;0.50;;;;;;;;;;1871331;76;26265;-87
2022/07/24 04:20:49;;;;;;;0.50;0.50;;;;;;;;;;1873557;75;26698;-86
2022/07/24 04:23:17;;;;;;;0.40;0.40;;;;;;;;;;1875592;75;26175;-87
2022/07/24 04:25:44;;;;;;;0.40;0.40;;;;;;;;;;1864775;75;26673;-87
2022/07/24 04:28:12;;;;;;;0.60;0.60;;;;;;;;;;1873257;75;26240;-87
2022/07/24 04:30:39;;;;;;;0.50;0.50;;;;;;;;;;1882983;75;26184;-87
2022/07/24 04:33:06;;;;;;;0.50;0.50;;;;;;;;;;1873641;76;26180;-87
2022/07/24 04:35:33;;;;;;;0.42;0.42;;;;;;;;;;1890341;75;26358;-86
2022/07/24 04:38:01;;;;;;;0.50;0.50;;;;;;;;;;1869612;76;26242;-87
2022/07/24 04:40:28;;;;;;;0.40;0.40;;;;;;;;;;1885776;75;26671;-87
2022/07/24 04:42:56;;;;;;;0.60;0.60;;;;;;;;;;1886570;75;26199;-87
2022/07/24 04:45:23;;;;;;;0.50;0.50;;;;;;;;;;1879925;76;26163;-88
2022/07/24 04:47:50;;;;;;;0.60;0.60;;;;;;;;;;1891956;75;26819;-86
2022/07/24 04:50:18;;;;;;;0.60;0.60;;;;;;;;;;1887167;75;26235;-88
2022/07/24 04:52:45;;;;;;;0.47;0.47;;;;;;;;;;1871549;75;27023;-87
2022/07/24 04:55:12;;;;;;;0.57;0.57;;;;;;;;;;1875005;75;26211;-87
2022/07/24 04:57:40;;;;;;;0.50;0.50;;;;;;;;;;1881155;75;26257;-87
2022/07/24 05:00:09;;;;;;;0.50;0.50;;;;;;;;;;1874025;75;26308;-87
2022/07/24 05:02:37;;;;;;;0.55;0.55;;;;;;;;;;1881486;75;26208;-87
2022/07/24 05:05:04;;;;;;;0.50;0.50;;;;;;;;;;1890621;75;26263;-88
2022/07/24 05:07:31;;;;;;;0.50;0.50;;;;;;;;;;1876940;75;26720;-88
2022/07/24 05:09:59;;;;;;;0.53;0.53;;;;;;;;;;1876036;75;26296;-88
2022/07/24 05:12:26;;;;;;;0.50;0.50;;;;;;;;;;1877494;75;26174;-87
2022/07/24 05:14:54;;;;;;;0.60;0.60;;;;;;;;;;1878155;75;26202;-87
2022/07/24 05:17:21;;;;;;;0.70;0.70;;;;;;;;;;1881866;75;26242;-89
2022/07/24 05:19:48;;;;;;;0.60;0.60;;;;;;;;;;1875965;75;26288;-87
2022/07/24 05:22:16;;;;;;;0.50;0.50;;;;;;;;;;1864325;75;26214;-87
2022/07/24 05:24:43;;;;;;;0.60;0.60;;;;;;;;;;1868811;75;26202;-87
2022/07/24 05:27:10;;;;;;;0.60;0.60;;;;;;;;;;1893001;75;26172;-87
2022/07/24 05:29:37;;;;;;;0.70;0.70;;;;;;;;;;1899066;75;26266;-87
2022/07/24 05:32:05;;;;;;;0.50;0.50;;;;;;;;;;1875645;75;26211;-87
2022/07/24 05:34:32;;;;;;;0.60;0.60;;;;;;;;;;1888055;75;26168;-88
2022/07/24 05:36:59;;;;;;;0.50;0.50;;;;;;;;;;1882220;75;26198;-86
2022/07/24 05:39:27;;;;;;;0.60;0.60;;;;;;;;;;1871075;75;26207;-87
2022/07/24 05:41:54;;;;;;;0.60;0.60;;;;;;;;;;1881240;75;26855;-86
2022/07/24 05:44:21;;;;;;;0.50;0.50;;;;;;;;;;1885383;75;26325;-87
2022/07/24 05:46:48;;;;;;;0.53;0.53;;;;;;;;;;1881426;74;26214;-86
2022/07/24 05:49:16;;;;;;;0.60;0.60;;;;;;;;;;1888431;75;26301;-87
2022/07/24 05:51:43;;;;;;;0.50;0.50;;;;;;;;;;1879756;75;27057;-87
2022/07/24 05:54:11;;;;;;;0.60;0.60;;;;;;;;;;1877332;75;27065;-87
2022/07/24 05:56:38;;;;;;;0.50;0.50;;;;;;;;;;1881151;75;26255;-87
2022/07/24 05:59:05;;;;;;;0.50;0.50;;;;;;;;;;1888685;74;26213;-86
2022/07/24 06:01:32;;;;;;;0.90;0.55;;;;;;;;;;1882686;75;26195;-87
2022/07/24 06:04:00;;;;;;;0.55;0.55;;;;;;;;;;1864872;75;26206;-87
2022/07/24 06:06:27;;;;;;;0.60;0.60;;;;;;;;;;1881307;75;26330;-87
2022/07/24 06:08:54;;;;;;;0.50;0.50;;;;;;;;;;1882228;75;26285;-87
2022/07/24 06:11:22;;;;;;;0.60;0.60;;;;;;;;;;1865941;75;26225;-86
2022/07/24 06:13:50;;;;;;;0.65;0.65;;;;;;;;;;1872397;75;26694;-87
2022/07/24 06:16:17;;;;;;;0.60;0.60;;;;;;;;;;1866098;75;26172;-87
2022/07/24 06:18:44;;;;;;;0.50;0.50;;;;;;;;;;1887040;75;26187;-87
2022/07/24 06:21:11;;;;;;;0.50;0.50;;;;;;;;;;1880879;75;26316;-87
2022/07/24 06:23:39;;;;;;;0.60;0.60;;;;;;;;;;1875821;75;26166;-88
2022/07/24 06:26:06;;;;;;;0.70;0.70;;;;;;;;;;1869904;75;26748;-88
2022/07/24 06:28:33;;;;;;;0.50;0.50;;;;;;;;;;1882942;75;26245;-86
2022/07/24 06:31:00;;;;;;;0.60;0.60;;;;;;;;;;1889410;75;26178;-87
2022/07/24 06:33:28;;;;;;;0.50;0.50;;;;;;;;;;1876739;75;26221;-87
2022/07/24 06:35:55;;;;;;;0.60;0.60;;;;;;;;;;1891625;75;26682;-86
2022/07/24 06:38:22;;;;;;;0.60;0.60;;;;;;;;;;1886652;75;26635;-88
2022/07/24 06:40:50;;;;;;;0.60;0.60;;;;;;;;;;1875216;75;26230;-88
2022/07/24 06:43:17;;;;;;;0.60;0.60;;;;;;;;;;1879826;75;26292;-88
2022/07/24 06:45:44;;;;;;;0.60;0.60;;;;;;;;;;1879525;75;26176;-87
2022/07/24 06:48:12;;;;;;;0.68;0.68;;;;;;;;;;1881832;75;26695;-87
2022/07/24 06:50:39;;;;;;;0.68;0.68;;;;;;;;;;1891693;75;26285;-89
2022/07/24 06:53:07;;;;;;;0.60;0.60;;;;;;;;;;1882872;75;26200;-88
2022/07/24 06:55:34;;;;;;;0.70;0.70;;;;;;;;;;1866197;75;26285;-88
2022/07/24 06:58:01;;;;;;;0.60;0.60;;;;;;;;;;1886334;75;26272;-86
2022/07/24 07:00:28;;;;;;;0.65;0.65;;;;;;;;;;1888517;76;26211;-86
2022/07/24 07:02:56;;;;;;;0.60;0.60;;;;;;;;;;1896314;75;26191;-86
2022/07/24 07:05:23;;;;;;;0.70;0.70;;;;;;;;;;1876872;75;26249;-86
2022/07/24 07:07:51;;;;;;;0.53;0.53;;;;;;;;;;1882569;75;26260;-86
2022/07/24 07:10:18;;;;;;;0.70;0.70;;;;;;;;;;1877286;75;26600;-87
2022/07/24 07:12:45;;;;;;;0.60;0.60;;;;;;;;;;1896023;75;26733;-86
2022/07/24 07:15:13;;;;;;;0.47;0.47;;;;;;;;;;1887104;75;26210;-86
2022/07/24 07:17:41;;;;;;;0.70;0.70;;;;;;;;;;1881507;75;26226;-86
2022/07/24 07:20:09;;;;;;;0.57;0.57;;;;;;;;;;1890166;75;26301;-86
2022/07/24 07:22:36;;;;;;;0.65;0.65;;;;;;;;;;1887837;75;26189;-86
2022/07/24 07:25:04;;;;;;;0.53;0.53;;;;;;;;;;1886714;74;26269;-86
2022/07/24 07:27:31;;;;;;;0.60;0.60;;;;;;;;;;1897580;75;26183;-86
2022/07/24 07:29:59;;;;;;;0.50;0.50;;;;;;;;;;1874561;75;26258;-87
2022/07/24 07:32:26;;;;;;;0.70;0.70;;;;;;;;;;1875965;75;26203;-86
2022/07/24 07:34:53;;;;;;;0.60;0.60;;;;;;;;;;1894802;75;26152;-87
2022/07/24 07:37:20;;;;;;;0.60;0.60;;;;;;;;;;1882255;75;26297;-87
2022/07/24 07:39:48;;;;;;;0.70;0.70;;;;;;;;;;1872414;75;26320;-86
2022/07/24 07:42:15;;;;;;;0.60;0.60;;;;;;;;;;1889751;75;26285;-87
2022/07/24 07:44:42;;;;;;;0.60;0.60;;;;;;;;;;1884671;75;26190;-86
2022/07/24 07:47:10;;;;;;;0.60;0.60;;;;;;;;;;1885152;75;26235;-87
2022/07/24 07:49:37;;;;;;;0.60;0.60;;;;;;;;;;1897876;75;26168;-86
2022/07/24 07:52:04;;;;;;;0.70;0.70;;;;;;;;;;1871125;75;26233;-87
2022/07/24 07:54:32;;;;;;;0.60;0.60;;;;;;;;;;1895003;75;26174;-87
2022/07/24 07:56:59;;;;;;;0.57;0.57;;;;;;;;;;1893552;75;26640;-87
2022/07/24 07:59:26;;;;;;;0.60;0.60;;;;;;;;;;1884857;75;26215;-87
2022/07/24 08:01:54;;;;;;;0.50;0.50;;;;;;;;;;1866417;75;26218;-87
2022/07/24 08:04:21;;;;;;;0.60;0.60;;;;;;;;;;1877852;75;26164;-86
2022/07/24 08:06:48;;;;;;;0.53;0.53;;;;;;;;;;1888297;75;26723;-87
2022/07/24 08:09:15;;;;;;;0.60;0.60;;;;;;;;;;1878087;75;26666;-86
2022/07/24 08:11:43;;;;;;;0.50;0.50;;;;;;;;;;1877997;75;26299;-87
2022/07/24 08:14:10;;;;;;;0.60;0.60;;;;;;;;;;1870358;75;26276;-87
2022/07/24 08:16:37;;;;;;;0.53;0.53;;;;;;;;;;1880352;76;26270;-86
2022/07/24 08:19:04;;;;;;;0.60;0.60;;;;;;;;;;1886667;75;26265;-87
2022/07/24 08:21:32;;;;;;;0.55;0.55;;;;;;;;;;1891534;75;26219;-87
2022/07/24 08:24:00;;;;;;;0.50;0.50;;;;;;;;;;1893512;75;26196;-87
2022/07/24 08:26:30;;;;;;;0.40;0.40;;;;;;;;;;1871997;75;26284;-87
2022/07/24 08:28:56;;;;;;;0.42;0.42;;;;;;;;;;1893121;74;26648;-87
2022/07/24 08:31:23;;;;;;;0.60;0.60;;;;;;;;;;1895811;75;26274;-86
2022/07/24 08:33:50;;;;;;;0.50;0.50;;;;;;;;;;1890260;76;26299;-86
2022/07/24 08:36:17;;;;;;;0.50;0.50;;;;;;;;;;1880698;75;26176;-87
2022/07/24 08:38:45;;;;;;;0.55;0.55;;;;;;;;;;1887542;75;26264;-87
2022/07/24 08:41:13;;;;;;;0.50;0.50;;;;;;;;;;1889001;75;26289;-87
2022/07/24 08:43:40;;;;;;;0.30;0.30;;;;;;;;;;1866684;76;26752;-87
2022/07/24 08:46:10;;;;;;;0.40;0.40;;;;;;;;;;1887707;75;26206;-87
2022/07/24 08:48:39;;;;;;;0.50;0.50;;;;;;;;;;1890101;75;26229;-87
2022/07/24 08:51:06;;;;;;;0.40;0.40;;;;;;;;;;1887527;74;26689;-87
2022/07/24 08:53:34;;;;;;;0.60;0.60;;;;;;;;;;1883061;75;26190;-87
2022/07/24 08:56:01;;;;;;;0.42;0.42;;;;;;;;;;1864985;75;26206;-87
2022/07/24 08:58:28;;;;;;;0.40;0.40;;;;;;;;;;1885812;75;26256;-86
2022/07/24 09:00:56;;;;;;;0.45;0.45;;;;;;;;;;1881564;75;26277;-88
2022/07/24 09:03:23;;;;;;;0.50;0.50;;;;;;;;;;1876892;76;26183;-87
2022/07/24 09:05:57;;;;;;;0.40;0.40;;;;;;;;;;1888878;75;26183;-86
2022/07/24 09:08:24;;;;;;;0.42;0.42;;;;;;;;;;1878906;75;26288;-86
2022/07/24 09:10:56;;;;;;;0.33;0.33;;;;;;;;;;1884912;76;26194;-87
2022/07/24 09:13:25;;;;;;;0.50;0.50;;;;;;;;;;1886947;76;26627;-87
2022/07/24 09:15:52;;;;;;;0.42;0.42;;;;;;;;;;1880593;75;26702;-87
2022/07/24 09:18:27;;;;;;;0.50;0.50;;;;;;;;;;1876497;76;26682;-87
2022/07/24 09:20:54;;;;;;;0.50;0.50;;;;;;;;;;1898294;75;26208;-87
2022/07/24 09:23:21;;;;;;;0.50;0.50;;;;;;;;;;1895608;75;26180;-86
2022/07/24 09:25:53;;;;;;;0.35;0.35;;;;;;;;;;1896512;75;26313;-86
2022/07/24 09:28:21;;;;;;;0.40;0.40;;;;;;;;;;1880645;75;26164;-86
2022/07/24 09:30:48;;;;;;;0.33;0.33;;;;;;;;;;1891284;75;26709;-86
2022/07/24 09:33:17;;;;;;;0.40;0.40;;;;;;;;;;1881429;75;26171;-86
2022/07/24 09:35:45;;;;;;;0.40;0.40;;;;;;;;;;1875537;75;26292;-86
2022/07/24 09:38:14;;;;;;;0.35;0.35;;;;;;;;;;1864710;76;26194;-86
2022/07/24 09:40:43;;;;;;;0.30;0.30;;;;;;;;;;1881368;76;26609;-86
2022/07/24 09:43:17;;;;;;;0.40;0.40;;;;;;;;;;1871948;76;26270;-87
2022/07/24 09:45:55;;;;;;;0.30;0.30;;;;;;;;;;1888150;75;26199;-86
2022/07/24 09:48:23;;;;;;;0.40;0.40;;;;;;;;;;1893569;75;26982;-86
2022/07/24 09:50:54;;;;;;;0.40;0.40;;;;;;;;;;1874618;75;26300;-86
2022/07/24 09:53:23;;;;;;;0.50;0.50;;;;;;;;;;1878688;75;26286;-87
2022/07/24 09:55:57;;;;;;;0.40;0.40;;;;;;;;;;1876298;75;26970;-87
2022/07/24 09:58:25;;;;;;;0.40;0.40;;;;;;;;;;1893784;75;26238;-87
2022/07/24 10:00:56;;;;;;;0.40;0.40;;;;;;;;;;1864677;76;26741;-87
2022/07/24 10:03:28;;;;;;;0.40;0.40;;;;;;;;;;1898770;75;26267;-87
2022/07/24 10:05:57;;;;;;;0.50;0.50;;;;;;;;;;1896394;75;26195;-85
2022/07/24 10:08:24;;;;;;;0.40;0.40;;;;;;;;;;1877956;75;26270;-86
2022/07/24 10:10:52;;;;;;;0.40;0.40;;;;;;;;;;1880441;74;26203;-86
2022/07/24 10:13:19;;;;;;;0.40;0.40;;;;;;;;;;1869816;75;25363;-86
2022/07/24 10:15:56;;;;;;;0.42;0.42;;;;;;;;;;1865076;75;26214;-86
2022/07/24 10:18:25;;;;;;;0.40;0.40;;;;;;;;;;1871965;76;26172;-87
2022/07/24 10:20:53;;;;;;;0.50;0.50;;;;;;;;;;1883475;75;26280;-86
2022/07/24 10:23:22;;;;;;;0.40;0.40;;;;;;;;;;1896663;75;26175;-86
2022/07/24 10:25:51;;;;;;;0.40;0.40;;;;;;;;;;1884631;76;27016;-86
2022/07/24 10:28:20;;;;;;;0.40;0.40;;;;;;;;;;1885016;75;26172;-85
2022/07/24 10:30:47;;;;;;;0.40;0.40;;;;;;;;;;1862023;75;26272;-87
2022/07/24 10:33:15;;;;;;;0.40;0.40;;;;;;;;;;1888592;75;26671;-88
2022/07/24 10:35:43;;;;;;;0.47;0.47;;;;;;;;;;1890154;75;26183;-87
2022/07/24 10:38:15;;;;;;;0.40;0.40;;;;;;;;;;1895478;76;26607;-87
2022/07/24 10:40:47;;;;;;;0.40;0.40;;;;;;;;;;1892906;75;26249;-87
2022/07/24 10:43:16;;;;;;;0.40;0.40;;;;;;;;;;1867624;75;26226;-87
2022/07/24 10:45:44;;;;;;;0.47;0.47;;;;;;;;;;1875270;75;26202;-87
2022/07/24 10:48:28;;;;;;;0.50;0.50;;;;;;;;;;1896931;75;26211;-86
2022/07/24 10:50:59;;;;;;;0.50;0.50;;;;;;;;;;1870921;75;26194;-86
2022/07/24 10:53:28;;;;;;;0.45;0.45;;;;;;;;;;1888374;75;26223;-86
2022/07/24 10:56:03;;;;;;;0.40;0.40;;;;;;;;;;1884148;74;26291;-86
2022/07/24 10:58:30;;;;;;;0.40;0.40;;;;;;;;;;1872870;75;26215;-86
2022/07/24 11:00:59;;;;;;;0.40;0.40;;;;;;;;;;1870314;75;26206;-86
2022/07/24 11:03:28;;;;;;;0.50;0.50;;;;;;;;;;1882762;75;26300;-87
2022/07/24 11:06:11;;;;;;;0.50;0.50;;;;;;;;;;1882048;75;26192;-86
2022/07/24 11:08:39;;;;;;;0.42;0.42;;;;;;;;;;1879465;75;26203;-87
2022/07/24 11:11:07;;;;;;;0.40;0.40;;;;;;;;;;1876308;74;26777;-87
2022/07/24 11:13:36;;;;;;;0.53;0.53;;;;;;;;;;1874844;75;26215;-85
2022/07/24 11:16:14;;;;;;;0.50;0.50;;;;;;;;;;1877150;75;26272;-87
2022/07/24 11:18:51;;;;;;;0.50;0.50;;;;;;;;;;1888127;75;26174;-86
2022/07/24 11:21:37;;;;;;;0.40;0.40;;;;;;;;;;1872208;76;26340;-87
2022/07/24 11:24:22;;;;;;;0.50;0.50;;;;;;;;;;1877383;76;26213;-86
2022/07/24 11:26:47;;;;;;;0.40;0.40;;;;;;;;;;1890967;75;26321;-87
2022/07/24 11:29:16;;;;;;;0.45;0.45;;;;;;;;;;1875674;75;26242;-87
2022/07/24 11:31:44;;;;;;;0.40;0.40;;;;;;;;;;1866378;75;26183;-86
2022/07/24 11:34:12;;;;;;;0.45;0.45;;;;;;;;;;1886387;75;26250;-87
2022/07/24 11:36:43;;;;;;;0.47;0.47;;;;;;;;;;1879523;75;26172;-87
2022/07/24 11:39:11;;;;;;;0.60;0.60;;;;;;;;;;1873324;75;26997;-87
2022/07/24 11:41:48;;;;;;;0.40;0.40;;;;;;;;;;1871548;75;26243;-86
2022/07/24 11:44:17;;;;;;;0.50;0.50;;;;;;;;;;1883371;75;26738;-87
2022/07/24 11:46:44;;;;;;;0.50;0.50;;;;;;;;;;1883888;75;26187;-86
2022/07/24 11:49:11;;;;;;;0.50;0.50;;;;;;;;;;1899535;75;26199;-86
2022/07/24 11:51:43;;;;;;;0.40;0.40;;;;;;;;;;1897500;75;26200;-87
2022/07/24 11:54:11;;;;;;;0.50;0.50;;;;;;;;;;1874907;75;26254;-86
2022/07/24 11:56:39;;;;;;;0.40;0.40;;;;;;;;;;1890566;75;26206;-87
2022/07/24 11:59:06;;;;;;;0.40;0.40;;;;;;;;;;1873749;75;26272;-87
2022/07/24 12:01:33;;;;;;;0.40;0.40;;;;;;;;;;1871436;76;26807;-87
2022/07/24 12:04:01;;;;;;;0.50;0.50;;;;;;;;;;1888824;75;26271;-87
2022/07/24 12:06:29;;;;;;;0.40;0.40;;;;;;;;;;1890969;75;26207;-87
2022/07/24 12:09:08;;;;;;;0.50;0.50;;;;;;;;;;1895439;75;26208;-86
2022/07/24 12:11:35;;;;;;;0.50;0.50;;;;;;;;;;1891311;75;26222;-86
2022/07/24 12:14:04;;;;;;;0.50;0.50;;;;;;;;;;1888804;75;26190;-86
2022/07/24 12:16:32;;;;;;;0.40;0.40;;;;;;;;;;1873832;75;26951;-87
2022/07/24 12:19:17;;;;;;;0.37;0.37;;;;;;;;;;1894080;75;26210;-86
2022/07/24 12:21:45;;;;;;;0.50;0.50;;;;;;;;;;1890807;74;26313;-86
2022/07/24 12:24:12;;;;;;;0.40;0.40;;;;;;;;;;1888419;73;26274;-86
2022/07/24 12:26:50;;;;;;;0.60;0.60;;;;;;;;;;1878613;74;26258;-86
2022/07/24 12:29:17;;;;;;;0.40;0.40;;;;;;;;;;1896238;73;26228;-86
2022/07/24 12:31:44;;;;;;;0.47;0.47;;;;;;;;;;1898539;73;26169;-86
2022/07/24 12:34:11;;;;;;;0.50;0.50;;;;;;;;;;1887790;74;26208;-86
2022/07/24 12:36:40;;;;;;;0.50;0.50;;;;;;;;;;1891390;73;26177;-87
2022/07/24 12:39:07;;;;;;;0.50;0.50;;;;;;;;;;1889275;75;26197;-87
2022/07/24 12:41:42;;;;;;;0.40;0.40;;;;;;;;;;1898103;74;26279;-87
2022/07/24 12:44:10;;;;;;;0.40;0.40;;;;;;;;;;1900677;75;26717;-87
2022/07/24 12:46:41;;;;;;;0.42;0.42;;;;;;;;;;1880460;75;26256;-87
2022/07/24 12:49:15;;;;;;;0.40;0.40;;;;;;;;;;1885265;76;26203;-89
2022/07/24 12:51:52;;;;;;;0.50;0.50;;;;;;;;;;1875209;76;26156;-88
2022/07/24 12:54:20;;;;;;;0.35;0.35;;;;;;;;;;1870988;76;26732;-87
2022/07/24 12:56:49;;;;;;;0.50;0.50;;;;;;;;;;1877721;75;26648;-87
2022/07/24 12:59:24;;;;;;;0.40;0.40;;;;;;;;;;1875443;75;26170;-87
2022/07/24 13:01:52;;;;;;;0.50;0.50;;;;;;;;;;1885178;75;26692;-87
2022/07/24 13:04:20;;;;;;;0.40;0.40;;;;;;;;;;1890415;75;26208;-87
2022/07/24 13:06:49;;;;;;;0.50;0.50;;;;;;;;;;1896352;75;26192;-88
2022/07/24 13:09:17;;;;;;;0.40;0.40;;;;;;;;;;1894370;75;26173;-88
2022/07/24 13:11:45;;;;;;;0.40;0.40;;;;;;;;;;1892776;75;26188;-86
2022/07/24 13:14:14;;;;;;;0.40;0.40;;;;;;;;;;1889786;75;26623;-87
2022/07/24 13:16:42;;;;;;;0.50;0.50;;;;;;;;;;1891876;75;26183;-86
2022/07/24 13:19:10;;;;;;;0.40;0.40;;;;;;;;;;1887181;75;26182;-87
2022/07/24 13:21:38;;;;;;;0.40;0.40;;;;;;;;;;1885794;75;26227;-86
2022/07/24 13:24:05;;;;;;;0.50;0.50;;;;;;;;;;1882245;76;26195;-87
2022/07/24 13:26:33;;;;;;;0.40;0.40;;;;;;;;;;1885615;76;26206;-88
2022/07/24 13:29:00;;;;;;;0.37;0.37;;;;;;;;;;1888027;75;26199;-87
2022/07/24 13:31:27;;;;;;;0.50;0.50;;;;;;;;;;1888326;75;26222;-87
2022/07/24 13:33:55;;;;;;;0.50;0.50;;;;;;;;;;1886587;75;26200;-87
2022/07/24 13:36:22;;;;;;;0.50;0.50;;;;;;;;;;1879534;75;26694;-87
2022/07/24 13:38:49;;;;;;;0.50;0.50;;;;;;;;;;1882183;75;26789;-87
2022/07/24 13:41:21;;;;;;;0.30;0.30;;;;;;;;;;1896216;75;26180;-87
2022/07/24 13:43:46;;;;;;;0.33;0.33;;;;;;;;;;1891371;75;26613;-87
2022/07/24 13:46:14;;;;;;;0.50;0.50;;;;;;;;;;1881300;75;26184;-87
2022/07/24 13:48:41;;;;;;;0.40;0.40;;;;;;;;;;1891454;75;26175;-86
2022/07/24 13:51:08;;;;;;;0.40;0.40;;;;;;;;;;1886363;75;26601;-86
2022/07/24 13:53:36;;;;;;;0.30;0.30;;;;;;;;;;1900776;75;26704;-87
2022/07/24 13:56:07;;;;;;;0.50;0.50;;;;;;;;;;1885045;75;26284;-86
2022/07/24 13:58:35;;;;;;;0.40;0.40;;;;;;;;;;1894025;75;26609;-86
2022/07/24 14:01:03;;;;;;;0.55;0.55;;;;;;;;;;1889483;75;26743;-86
2022/07/24 14:03:31;;;;;;;0.40;0.40;;;;;;;;;;1893735;75;26261;-86
2022/07/24 14:05:59;;;;;;;0.40;0.40;;;;;;;;;;1887230;75;26297;-87
2022/07/24 14:08:26;;;;;;;0.50;0.50;;;;;;;;;;1884655;76;26231;-86
2022/07/24 14:10:53;;;;;;;0.40;0.40;;;;;;;;;;1863715;75;26201;-87
2022/07/24 14:13:21;;;;;;;0.50;0.50;;;;;;;;;;1882406;75;26210;-87
2022/07/24 14:15:48;;;;;;;0.50;0.50;;;;;;;;;;1888678;75;26722;-86
2022/07/24 14:18:15;;;;;;;0.50;0.50;;;;;;;;;;1895932;75;26257;-88
2022/07/24 14:20:43;;;;;;;0.40;0.40;;;;;;;;;;1873406;76;26305;-87
2022/07/24 14:23:10;;;;;;;0.40;0.40;;;;;;;;;;1894462;75;26203;-86
2022/07/24 14:25:37;;;;;;;0.45;0.45;;;;;;;;;;1884102;75;26176;-87
2022/07/24 14:28:05;;;;;;;0.40;0.40;;;;;;;;;;1893292;75;26293;-87
2022/07/24 14:30:33;;;;;;;0.53;0.53;;;;;;;;;;1891551;75;26292;-87
2022/07/24 14:33:00;;;;;;;0.40;0.40;;;;;;;;;;1878377;76;26240;-86
2022/07/24 14:35:29;;;;;;;0.40;0.40;;;;;;;;;;1893329;75;26664;-87
2022/07/24 14:37:56;;;;;;;0.40;0.40;;;;;;;;;;1875368;75;26219;-86
2022/07/24 14:40:23;;;;;;;0.40;0.40;;;;;;;;;;1896609;75;26269;-87
2022/07/24 14:42:51;;;;;;;0.50;0.50;;;;;;;;;;1891451;75;26170;-86
2022/07/24 14:45:18;;;;;;;0.40;0.40;;;;;;;;;;1876379;75;26634;-86
2022/07/24 14:47:45;;;;;;;0.30;0.30;;;;;;;;;;1875380;75;26187;-86
2022/07/24 14:50:13;;;;;;;0.50;0.50;;;;;;;;;;1882393;75;26272;-87